Time;durP1;ratioP1;P1;durP2;ratioP2;P2;SDS_P1;SDS_P2;PMS_P1;PMS_P2;Temp;Humidity;BMP_temperature;BMP_pressure;BME280_temperature;BME280_humidity;BME280_pressure;Samples;Min_cycle;Max_cycle;Signal;HPM_P1;HPM_P2
2023/03/03 00:01:48;;;;;;;29.57;17.67;;;;;;;;;;5024076;28;20197;-90
2023/03/03 00:04:13;;;;;;;30.10;16.30;;;;;;;;;;5005063;28;20185;-88
2023/03/03 00:06:38;;;;;;;37.73;16.73;;;;;;;;;;5003711;28;20214;-89
2023/03/03 00:09:07;;;;;;;25.27;15.83;;;;;;;;;;5020023;28;20179;-89
2023/03/03 00:11:32;;;;;;;25.57;13.80;;;;;;;;;;4996407;28;20310;-88
2023/03/03 00:13:57;;;;;;;12.73;9.13;;;;;;;;;;5002298;28;20270;-88
2023/03/03 00:16:36;;;;;;;29.33;16.20;;;;;;;;;;5003183;28;20230;-90
2023/03/03 00:19:03;;;;;;;26.20;15.80;;;;;;;;;;5000929;28;20183;-88
2023/03/03 00:21:45;;;;;;;24.30;15.03;;;;;;;;;;5007364;28;20169;-89
2023/03/03 00:24:13;;;;;;;26.30;16.07;;;;;;;;;;5018889;28;20234;-89
2023/03/03 00:26:39;;;;;;;26.23;15.23;;;;;;;;;;5001092;28;20176;-89
2023/03/03 00:29:23;;;;;;;28.60;15.10;;;;;;;;;;5000348;28;20182;-89
2023/03/03 00:31:48;;;;;;;29.43;17.37;;;;;;;;;;5025305;28;20252;-88
2023/03/03 00:34:17;;;;;;;26.07;15.87;;;;;;;;;;5001413;28;20174;-89
2023/03/03 00:36:43;;;;;;;29.33;16.83;;;;;;;;;;5008904;28;20214;-88
2023/03/03 00:39:14;;;;;;;28.40;15.43;;;;;;;;;;5024856;28;20207;-89
2023/03/03 00:41:39;;;;;;;26.40;16.07;;;;;;;;;;5004752;28;20179;-88
2023/03/03 00:44:25;;;;;;;17.97;10.77;;;;;;;;;;5006458;28;20171;-90
2023/03/03 00:46:52;;;;;;;25.70;17.27;;;;;;;;;;5003309;28;20175;-89
2023/03/03 00:49:23;;;;;;;22.33;12.53;;;;;;;;;;5000694;28;20293;-89
2023/03/03 00:51:48;;;;;;;28.37;15.97;;;;;;;;;;5006260;28;20286;-89
2023/03/03 00:54:14;;;;;;;26.00;17.20;;;;;;;;;;5003728;28;20175;-91
2023/03/03 00:56:39;;;;;;;27.33;15.40;;;;;;;;;;5024318;28;20206;-89
2023/03/03 00:59:04;;;;;;;26.13;16.00;;;;;;;;;;4999978;28;20210;-90
2023/03/03 01:01:29;;;;;;;25.27;16.27;;;;;;;;;;5021206;28;20175;-90
2023/03/03 01:03:55;;;;;;;29.10;17.37;;;;;;;;;;5002061;28;20261;-92
2023/03/03 01:06:20;;;;;;;24.97;15.97;;;;;;;;;;4999493;28;20183;-90
2023/03/03 01:08:45;;;;;;;25.07;17.13;;;;;;;;;;5006309;28;20250;-90
2023/03/03 01:11:12;;;;;;;29.10;17.77;;;;;;;;;;5004434;28;20289;-90
2023/03/03 01:13:40;;;;;;;30.00;16.70;;;;;;;;;;4996827;28;20199;-91
2023/03/03 01:16:05;;;;;;;28.97;17.40;;;;;;;;;;5034311;28;20220;-91
2023/03/03 01:18:31;;;;;;;26.53;16.50;;;;;;;;;;5024830;28;20171;-91
2023/03/03 01:20:57;;;;;;;26.37;16.27;;;;;;;;;;5023698;28;20256;-92
2023/03/03 01:23:22;;;;;;;28.73;16.80;;;;;;;;;;5031797;28;20182;-92
2023/03/03 01:25:47;;;;;;;32.63;18.93;;;;;;;;;;5023765;28;20182;-91
2023/03/03 01:28:12;;;;;;;27.40;16.67;;;;;;;;;;5023396;28;20185;-92
2023/03/03 01:30:38;;;;;;;30.40;17.37;;;;;;;;;;5024673;28;20266;-92
2023/03/03 01:33:03;;;;;;;31.47;18.10;;;;;;;;;;5022526;28;20210;-92
2023/03/03 01:35:28;;;;;;;31.53;17.60;;;;;;;;;;5020843;28;20213;-90
2023/03/03 01:37:54;;;;;;;28.27;17.97;;;;;;;;;;5027146;28;20197;-91
2023/03/03 01:40:21;;;;;;;28.60;17.50;;;;;;;;;;5028416;28;20171;-91
2023/03/03 01:42:47;;;;;;;31.30;16.60;;;;;;;;;;5030559;28;20210;-91
2023/03/03 01:45:16;;;;;;;29.83;16.97;;;;;;;;;;5046294;28;20213;-90
2023/03/03 01:47:55;;;;;;;30.40;16.73;;;;;;;;;;5025615;28;20653;-91
2023/03/03 01:50:31;;;;;;;30.30;16.20;;;;;;;;;;5025266;28;20251;-91
2023/03/03 01:52:58;;;;;;;24.67;14.33;;;;;;;;;;5031734;28;20320;-91
2023/03/03 01:55:25;;;;;;;29.80;16.60;;;;;;;;;;5026743;28;20179;-91
2023/03/03 01:58:03;;;;;;;31.80;18.50;;;;;;;;;;5048566;28;20178;-90
2023/03/03 02:00:29;;;;;;;32.17;16.93;;;;;;;;;;5027180;28;20171;-90
2023/03/03 02:02:54;;;;;;;29.00;17.10;;;;;;;;;;5029121;28;20185;-90
2023/03/03 02:05:20;;;;;;;24.13;16.63;;;;;;;;;;5020760;28;20187;-90
2023/03/03 02:07:45;;;;;;;29.53;18.33;;;;;;;;;;5046193;28;20189;-89
2023/03/03 02:10:11;;;;;;;26.17;17.23;;;;;;;;;;5026745;28;20174;-89
2023/03/03 02:12:37;;;;;;;31.67;17.83;;;;;;;;;;5032293;28;20244;-89
2023/03/03 02:15:14;;;;;;;34.97;18.37;;;;;;;;;;5044217;28;20263;-89
2023/03/03 02:17:39;;;;;;;30.10;17.77;;;;;;;;;;5006498;28;20197;-89
2023/03/03 02:20:09;;;;;;;28.47;17.43;;;;;;;;;;5004547;28;20175;-89
2023/03/03 02:22:46;;;;;;;30.17;17.27;;;;;;;;;;5002682;28;20179;-88
2023/03/03 02:25:14;;;;;;;33.97;19.50;;;;;;;;;;5009240;28;20190;-88
2023/03/03 02:27:40;;;;;;;27.23;16.37;;;;;;;;;;5004225;28;20202;-88
2023/03/03 02:30:12;;;;;;;33.03;18.10;;;;;;;;;;5006480;28;20175;-88
2023/03/03 02:32:37;;;;;;;33.23;18.17;;;;;;;;;;5010933;28;20288;-87
2023/03/03 02:35:23;;;;;;;28.37;17.43;;;;;;;;;;5004509;28;20218;-88
2023/03/03 02:37:48;;;;;;;35.07;18.67;;;;;;;;;;5005289;28;20180;-87
2023/03/03 02:40:14;;;;;;;29.37;16.80;;;;;;;;;;5003980;28;20193;-87
2023/03/03 02:42:40;;;;;;;31.50;18.80;;;;;;;;;;5018616;28;20215;-87
2023/03/03 02:45:05;;;;;;;31.83;18.00;;;;;;;;;;5005994;28;20214;-87
2023/03/03 02:47:31;;;;;;;32.00;18.53;;;;;;;;;;5005715;28;20190;-86
2023/03/03 02:49:56;;;;;;;33.17;19.70;;;;;;;;;;5014339;28;20276;-86
2023/03/03 02:52:21;;;;;;;30.63;18.80;;;;;;;;;;5008532;28;20200;-86
2023/03/03 02:54:46;;;;;;;32.87;18.90;;;;;;;;;;5007892;28;20232;-86
2023/03/03 02:57:12;;;;;;;35.57;20.43;;;;;;;;;;5007559;28;20180;-85
2023/03/03 02:59:37;;;;;;;34.13;18.70;;;;;;;;;;5008695;28;20206;-85
2023/03/03 03:02:03;;;;;;;35.07;18.70;;;;;;;;;;5004184;28;20182;-85
2023/03/03 03:04:28;;;;;;;31.07;18.13;;;;;;;;;;5013300;28;20483;-85
2023/03/03 03:06:54;;;;;;;35.10;18.77;;;;;;;;;;5003020;28;20199;-84
2023/03/03 03:09:23;;;;;;;34.00;19.57;;;;;;;;;;5023760;28;20186;-84
2023/03/03 03:11:48;;;;;;;28.47;16.60;;;;;;;;;;5010508;28;20230;-84
2023/03/03 03:14:14;;;;;;;31.27;19.10;;;;;;;;;;5010965;28;20182;-84
2023/03/03 03:16:40;;;;;;;32.33;18.67;;;;;;;;;;5006531;28;20227;-84
2023/03/03 03:19:05;;;;;;;37.57;22.57;;;;;;;;;;5004259;28;20195;-83
2023/03/03 03:21:31;;;;;;;39.03;18.80;;;;;;;;;;5009487;28;20172;-83
2023/03/03 03:23:56;;;;;;;33.47;19.37;;;;;;;;;;5007473;28;20190;-83
2023/03/03 03:26:22;;;;;;;33.33;21.03;;;;;;;;;;5004859;28;20190;-83
2023/03/03 03:28:48;;;;;;;32.23;19.20;;;;;;;;;;5005232;28;20215;-83
2023/03/03 03:31:14;;;;;;;32.90;18.67;;;;;;;;;;4999898;28;20230;-83
2023/03/03 03:33:39;;;;;;;34.90;17.70;;;;;;;;;;5011488;28;20242;-83
2023/03/03 03:36:05;;;;;;;35.17;20.37;;;;;;;;;;5002925;28;20246;-83
2023/03/03 03:38:31;;;;;;;34.23;19.20;;;;;;;;;;5021932;28;20306;-83
2023/03/03 03:40:57;;;;;;;26.80;14.10;;;;;;;;;;5008311;28;20171;-83
2023/03/03 03:43:22;;;;;;;32.57;18.13;;;;;;;;;;4997911;28;20277;-83
2023/03/03 03:45:48;;;;;;;34.80;20.87;;;;;;;;;;5000168;28;20261;-83
2023/03/03 03:48:14;;;;;;;39.73;22.17;;;;;;;;;;4998843;28;20191;-83
2023/03/03 03:50:39;;;;;;;35.80;22.07;;;;;;;;;;5001839;28;20278;-83
2023/03/03 03:53:05;;;;;;;40.30;23.07;;;;;;;;;;5005204;28;20281;-83
2023/03/03 03:55:31;;;;;;;35.43;21.60;;;;;;;;;;4997936;28;20179;-83
2023/03/03 03:57:56;;;;;;;43.33;23.80;;;;;;;;;;4995621;28;20182;-83
2023/03/03 04:00:22;;;;;;;41.03;23.20;;;;;;;;;;5006552;28;20175;-83
2023/03/03 04:02:47;;;;;;;43.97;21.60;;;;;;;;;;4997770;28;20217;-83
2023/03/03 04:05:13;;;;;;;36.43;20.93;;;;;;;;;;5002804;28;20186;-83
2023/03/03 04:07:38;;;;;;;35.23;21.63;;;;;;;;;;5000171;28;20214;-83
2023/03/03 04:10:03;;;;;;;40.23;20.60;;;;;;;;;;5003183;28;20183;-84
2023/03/03 04:12:30;;;;;;;45.23;23.00;;;;;;;;;;5008929;28;20236;-83
2023/03/03 04:14:55;;;;;;;36.03;22.23;;;;;;;;;;4999981;28;20206;-83
2023/03/03 04:17:21;;;;;;;39.60;23.00;;;;;;;;;;5003334;28;20308;-84
2023/03/03 04:19:47;;;;;;;43.77;23.33;;;;;;;;;;5005707;28;20262;-84
2023/03/03 04:22:13;;;;;;;46.50;23.90;;;;;;;;;;5000565;28;20344;-83
2023/03/03 04:24:39;;;;;;;45.80;24.17;;;;;;;;;;5004485;28;20187;-84
2023/03/03 04:27:04;;;;;;;41.47;22.97;;;;;;;;;;5006334;28;20199;-84
2023/03/03 04:29:29;;;;;;;46.07;24.83;;;;;;;;;;5006530;28;20187;-83
2023/03/03 04:31:55;;;;;;;42.83;22.93;;;;;;;;;;5001000;28;20194;-84
2023/03/03 04:34:20;;;;;;;43.40;23.47;;;;;;;;;;5023289;28;20174;-84
2023/03/03 04:36:45;;;;;;;44.23;21.57;;;;;;;;;;5020311;28;20262;-84
2023/03/03 04:39:11;;;;;;;39.87;21.47;;;;;;;;;;5004849;28;20175;-83
2023/03/03 04:41:36;;;;;;;33.63;17.30;;;;;;;;;;5001369;28;20187;-84
2023/03/03 04:44:01;;;;;;;36.73;18.63;;;;;;;;;;5002971;28;20171;-84
2023/03/03 04:46:26;;;;;;;39.07;22.03;;;;;;;;;;5004571;28;20250;-84
2023/03/03 04:48:52;;;;;;;36.90;20.83;;;;;;;;;;4996711;28;20203;-84
2023/03/03 04:51:17;;;;;;;39.63;23.77;;;;;;;;;;5000623;28;20178;-83
2023/03/03 04:53:43;;;;;;;36.23;20.90;;;;;;;;;;5003490;28;20218;-84
2023/03/03 04:56:08;;;;;;;37.10;21.03;;;;;;;;;;4998871;28;20226;-84
2023/03/03 04:58:33;;;;;;;41.83;22.97;;;;;;;;;;5001646;28;20183;-84
2023/03/03 05:00:59;;;;;;;40.27;20.03;;;;;;;;;;5009862;28;20179;-84
2023/03/03 05:03:25;;;;;;;36.77;22.20;;;;;;;;;;5002514;28;20201;-83
2023/03/03 05:05:51;;;;;;;35.07;21.03;;;;;;;;;;5004832;28;20194;-83
2023/03/03 05:08:16;;;;;;;37.63;21.47;;;;;;;;;;5003060;28;20182;-83
2023/03/03 05:10:41;;;;;;;36.67;20.67;;;;;;;;;;5004173;28;20187;-84
2023/03/03 05:13:08;;;;;;;29.87;16.20;;;;;;;;;;4998037;28;20218;-84
2023/03/03 05:15:33;;;;;;;33.63;20.30;;;;;;;;;;5001608;28;20325;-83
2023/03/03 05:17:58;;;;;;;35.97;20.27;;;;;;;;;;5028676;28;20273;-83
2023/03/03 05:20:24;;;;;;;35.67;19.80;;;;;;;;;;5031711;28;20257;-83
2023/03/03 05:22:49;;;;;;;38.00;20.33;;;;;;;;;;5028992;28;20206;-83
2023/03/03 05:25:15;;;;;;;33.00;17.47;;;;;;;;;;5022554;28;20311;-83
2023/03/03 05:27:41;;;;;;;36.33;20.50;;;;;;;;;;5028066;28;20190;-83
2023/03/03 05:30:08;;;;;;;42.43;22.60;;;;;;;;;;5046632;28;20256;-83
2023/03/03 05:32:34;;;;;;;40.77;22.90;;;;;;;;;;5027074;28;20270;-83
2023/03/03 05:34:59;;;;;;;37.20;21.47;;;;;;;;;;5030331;28;20316;-83
2023/03/03 05:37:25;;;;;;;35.10;21.43;;;;;;;;;;5029056;28;20235;-83
2023/03/03 05:39:50;;;;;;;41.33;22.27;;;;;;;;;;5031008;28;20178;-83
2023/03/03 05:42:15;;;;;;;36.07;22.20;;;;;;;;;;5025862;28;20186;-83
2023/03/03 05:44:40;;;;;;;35.07;20.63;;;;;;;;;;5025082;28;20291;-83
2023/03/03 05:47:06;;;;;;;37.20;22.07;;;;;;;;;;5033638;28;20182;-83
2023/03/03 05:49:31;;;;;;;38.47;22.23;;;;;;;;;;5017138;28;20189;-83
2023/03/03 05:51:58;;;;;;;38.43;22.33;;;;;;;;;;5028762;28;20201;-83
2023/03/03 05:54:23;;;;;;;35.40;20.13;;;;;;;;;;5044794;28;20183;-83
2023/03/03 05:56:48;;;;;;;39.50;21.63;;;;;;;;;;5050142;28;20190;-83
2023/03/03 05:59:14;;;;;;;39.13;18.70;;;;;;;;;;5044497;28;20190;-83
2023/03/03 06:01:39;;;;;;;34.67;19.27;;;;;;;;;;5028025;28;20258;-78
2023/03/03 06:04:04;;;;;;;32.47;18.10;;;;;;;;;;5026929;28;20209;-77
2023/03/03 06:06:29;;;;;;;38.53;21.03;;;;;;;;;;5033334;28;20233;-77
2023/03/03 06:08:55;;;;;;;35.03;19.57;;;;;;;;;;5034213;28;20178;-77
2023/03/03 06:11:20;;;;;;;31.63;17.67;;;;;;;;;;5026191;28;20221;-77
2023/03/03 06:13:45;;;;;;;34.87;20.17;;;;;;;;;;5028130;28;20202;-77
2023/03/03 06:16:10;;;;;;;39.10;22.23;;;;;;;;;;5016318;28;20285;-77
2023/03/03 06:18:36;;;;;;;32.30;19.57;;;;;;;;;;5001019;28;20183;-77
2023/03/03 06:21:01;;;;;;;37.50;21.00;;;;;;;;;;5008195;28;20226;-77
2023/03/03 06:23:26;;;;;;;35.97;19.67;;;;;;;;;;5000513;28;20234;-77
2023/03/03 06:25:52;;;;;;;32.67;20.17;;;;;;;;;;5024500;28;20250;-77
2023/03/03 06:28:20;;;;;;;35.23;19.20;;;;;;;;;;5005843;28;20210;-77
2023/03/03 06:30:45;;;;;;;34.37;20.53;;;;;;;;;;5024905;28;20183;-76
2023/03/03 06:33:10;;;;;;;40.03;20.20;;;;;;;;;;5005421;28;20210;-77
2023/03/03 06:35:35;;;;;;;35.40;20.70;;;;;;;;;;5010110;28;20193;-77
2023/03/03 06:38:01;;;;;;;37.20;19.87;;;;;;;;;;5006030;28;20179;-77
2023/03/03 06:40:26;;;;;;;39.20;21.80;;;;;;;;;;5008788;28;20186;-77
2023/03/03 06:42:51;;;;;;;43.03;23.87;;;;;;;;;;5007119;28;20183;-77
2023/03/03 06:45:17;;;;;;;36.17;22.53;;;;;;;;;;5003943;28;20183;-77
2023/03/03 06:47:42;;;;;;;36.23;22.33;;;;;;;;;;5011982;28;20190;-77
2023/03/03 06:50:09;;;;;;;37.93;21.70;;;;;;;;;;5025232;28;20272;-77
2023/03/03 06:52:34;;;;;;;40.40;20.93;;;;;;;;;;5023927;28;20261;-77
2023/03/03 06:55:01;;;;;;;42.40;21.40;;;;;;;;;;5000905;28;20198;-77
2023/03/03 06:57:27;;;;;;;35.53;20.33;;;;;;;;;;4999577;28;20199;-77
2023/03/03 06:59:54;;;;;;;34.97;20.13;;;;;;;;;;4996541;28;20180;-77
2023/03/03 07:02:20;;;;;;;34.47;19.10;;;;;;;;;;5005603;28;20183;-77
2023/03/03 07:04:48;;;;;;;37.10;20.83;;;;;;;;;;5006412;28;20193;-77
2023/03/03 07:07:29;;;;;;;35.60;22.13;;;;;;;;;;5005059;28;20183;-77
2023/03/03 07:09:55;;;;;;;33.87;20.70;;;;;;;;;;5012259;28;20182;-78
2023/03/03 07:12:24;;;;;;;36.97;21.10;;;;;;;;;;5003481;28;20206;-77
2023/03/03 07:15:08;;;;;;;36.40;21.00;;;;;;;;;;5006799;28;20174;-77
2023/03/03 07:17:34;;;;;;;33.83;19.63;;;;;;;;;;5028661;28;20229;-77
2023/03/03 07:20:00;;;;;;;36.93;20.33;;;;;;;;;;5021653;28;20213;-78
2023/03/03 07:22:26;;;;;;;32.33;18.57;;;;;;;;;;5027097;28;20201;-78
2023/03/03 07:24:57;;;;;;;37.47;22.03;;;;;;;;;;5030941;28;20177;-78
2023/03/03 07:27:23;;;;;;;38.80;20.40;;;;;;;;;;5024285;28;20185;-78
2023/03/03 07:29:50;;;;;;;39.43;21.77;;;;;;;;;;5021405;28;20208;-78
2023/03/03 07:32:15;;;;;;;35.63;20.77;;;;;;;;;;5018754;28;20264;-78
2023/03/03 07:34:45;;;;;;;37.70;21.80;;;;;;;;;;5024242;28;20178;-78
2023/03/03 07:37:23;;;;;;;34.77;20.40;;;;;;;;;;5020943;28;20174;-78
2023/03/03 07:39:49;;;;;;;46.67;25.57;;;;;;;;;;5019017;28;20251;-78
2023/03/03 07:42:28;;;;;;;34.67;20.80;;;;;;;;;;5017942;28;20303;-78
2023/03/03 07:44:55;;;;;;;37.13;21.93;;;;;;;;;;5029424;28;20229;-74
2023/03/03 07:47:30;;;;;;;36.87;20.73;;;;;;;;;;5020747;28;20178;-80
2023/03/03 07:49:58;;;;;;;34.73;19.47;;;;;;;;;;5035993;28;20189;-79
2023/03/03 07:52:26;;;;;;;35.13;20.00;;;;;;;;;;5025687;28;20292;-79
2023/03/03 07:54:54;;;;;;;42.13;21.80;;;;;;;;;;5021513;28;20328;-79
2023/03/03 07:57:19;;;;;;;35.83;21.70;;;;;;;;;;5049289;28;20185;-81
2023/03/03 07:59:57;;;;;;;32.17;20.33;;;;;;;;;;5025738;28;20182;-79
2023/03/03 08:02:22;;;;;;;36.00;20.03;;;;;;;;;;5026037;28;20178;-79
2023/03/03 08:04:51;;;;;;;34.70;19.97;;;;;;;;;;5029906;28;20201;-79
2023/03/03 08:07:17;;;;;;;39.43;22.13;;;;;;;;;;5021613;28;20324;-79
2023/03/03 08:09:43;;;;;;;31.83;19.97;;;;;;;;;;5021597;28;20178;-79
2023/03/03 08:12:08;;;;;;;41.97;22.57;;;;;;;;;;5027524;28;20208;-79
2023/03/03 08:14:34;;;;;;;39.07;22.50;;;;;;;;;;5029981;28;20182;-79
2023/03/03 08:17:00;;;;;;;42.80;23.30;;;;;;;;;;5025436;28;20218;-79
2023/03/03 08:19:26;;;;;;;36.23;21.40;;;;;;;;;;4999279;28;20183;-79
2023/03/03 08:21:52;;;;;;;32.70;19.73;;;;;;;;;;4999888;28;20175;-79
2023/03/03 08:24:18;;;;;;;35.80;21.43;;;;;;;;;;5002212;28;20293;-79
2023/03/03 08:26:43;;;;;;;37.00;22.07;;;;;;;;;;5007639;28;20198;-79
2023/03/03 08:29:10;;;;;;;39.07;21.00;;;;;;;;;;5008818;28;20187;-78
2023/03/03 08:31:36;;;;;;;34.10;20.03;;;;;;;;;;5019039;28;20178;-79
2023/03/03 08:34:02;;;;;;;34.97;19.33;;;;;;;;;;5012117;28;20207;-79
2023/03/03 08:36:27;;;;;;;38.33;19.90;;;;;;;;;;5014793;28;20285;-79
2023/03/03 08:38:52;;;;;;;32.57;18.70;;;;;;;;;;5011013;28;20198;-79
2023/03/03 08:41:18;;;;;;;35.57;19.67;;;;;;;;;;5001690;28;20175;-79
2023/03/03 08:43:44;;;;;;;31.23;18.40;;;;;;;;;;5012297;28;20202;-79
2023/03/03 08:46:10;;;;;;;32.47;18.57;;;;;;;;;;5011658;28;20213;-79
2023/03/03 08:48:36;;;;;;;34.07;18.90;;;;;;;;;;5000835;28;20329;-79
2023/03/03 08:51:01;;;;;;;29.13;17.50;;;;;;;;;;5013746;28;20269;-79
2023/03/03 08:53:26;;;;;;;30.43;18.63;;;;;;;;;;5024046;28;20198;-78
2023/03/03 08:55:52;;;;;;;28.40;17.97;;;;;;;;;;5019468;28;20179;-78
2023/03/03 08:58:18;;;;;;;26.37;17.47;;;;;;;;;;5009920;28;20175;-78
2023/03/03 09:00:43;;;;;;;33.80;20.20;;;;;;;;;;5006644;28;20182;-78
2023/03/03 09:03:09;;;;;;;30.10;18.03;;;;;;;;;;5012813;28;20183;-78
2023/03/03 09:05:35;;;;;;;30.37;17.70;;;;;;;;;;5010599;28;20190;-77
2023/03/03 09:08:00;;;;;;;30.73;18.90;;;;;;;;;;4994503;28;20191;-77
2023/03/03 09:10:28;;;;;;;31.80;19.97;;;;;;;;;;5013517;28;20194;-77
2023/03/03 09:12:56;;;;;;;30.57;20.23;;;;;;;;;;5011800;28;20226;-77
2023/03/03 09:15:22;;;;;;;28.77;17.27;;;;;;;;;;5012487;28;20266;-77
2023/03/03 09:17:48;;;;;;;29.80;17.67;;;;;;;;;;5024450;28;20248;-77
2023/03/03 09:20:19;;;;;;;28.83;18.70;;;;;;;;;;5027375;28;20187;-77
2023/03/03 09:22:45;;;;;;;30.77;16.30;;;;;;;;;;5015852;28;20197;-77
2023/03/03 09:25:18;;;;;;;32.17;16.70;;;;;;;;;;5024877;28;20190;-77
2023/03/03 09:27:44;;;;;;;27.70;16.90;;;;;;;;;;5025311;28;20189;-77
2023/03/03 09:30:26;;;;;;;27.77;15.80;;;;;;;;;;5022201;28;20179;-77
2023/03/03 09:32:51;;;;;;;29.30;17.53;;;;;;;;;;5048813;28;20202;-77
2023/03/03 09:35:35;;;;;;;29.93;17.93;;;;;;;;;;5021650;28;20171;-77
2023/03/03 09:38:01;;;;;;;29.80;18.83;;;;;;;;;;5024350;28;20181;-77
2023/03/03 09:40:35;;;;;;;41.03;18.43;;;;;;;;;;5029431;28;20174;-77
2023/03/03 09:43:07;;;;;;;29.03;17.80;;;;;;;;;;5020965;28;20185;-78
2023/03/03 09:45:38;;;;;;;29.40;18.60;;;;;;;;;;5023730;28;20199;-79
2023/03/03 09:48:03;;;;;;;26.60;16.17;;;;;;;;;;5017758;28;20187;-78
2023/03/03 09:50:31;;;;;;;30.90;16.50;;;;;;;;;;5022285;28;20178;-78
2023/03/03 09:53:29;;;;;;;19.17;12.43;;;;;;;;;;5035664;28;20201;-78
2023/03/03 09:56:06;;;;;;;28.53;17.63;;;;;;;;;;4993215;28;20199;-78
2023/03/03 09:58:44;;;;;;;32.77;18.80;;;;;;;;;;5030838;28;20170;-78
2023/03/03 10:01:15;;;;;;;29.17;18.57;;;;;;;;;;5022856;28;20175;-78
2023/03/03 10:03:55;;;;;;;23.50;16.00;;;;;;;;;;5020032;28;20183;-78
2023/03/03 10:06:24;;;;;;;33.53;19.20;;;;;;;;;;5028575;28;20188;-78
2023/03/03 10:09:27;;;;;;;31.60;17.77;;;;;;;;;;5020690;28;20316;-78
2023/03/03 10:11:57;;;;;;;28.87;16.87;;;;;;;;;;5034237;28;20227;-78
2023/03/03 10:14:25;;;;;;;30.03;19.57;;;;;;;;;;5029843;28;20181;-78
2023/03/03 10:17:09;;;;;;;25.73;16.53;;;;;;;;;;5026419;28;20233;-79
2023/03/03 10:19:36;;;;;;;32.20;18.43;;;;;;;;;;5022461;28;20181;-78
2023/03/03 10:22:23;;;;;;;26.43;16.87;;;;;;;;;;5034465;28;20178;-78
2023/03/03 10:24:51;;;;;;;29.10;18.83;;;;;;;;;;5025401;28;20189;-79
2023/03/03 10:27:24;;;;;;;33.80;17.27;;;;;;;;;;5028885;28;20168;-78
2023/03/03 10:29:58;;;;;;;26.77;18.00;;;;;;;;;;5029815;28;20176;-79
2023/03/03 10:32:26;;;;;;;28.70;18.60;;;;;;;;;;5026168;28;20203;-79
2023/03/03 10:35:14;;;;;;;28.87;18.50;;;;;;;;;;5018690;28;20229;-78
2023/03/03 10:37:55;;;;;;;32.70;19.53;;;;;;;;;;5031609;28;20181;-79
2023/03/03 10:40:27;;;;;;;30.37;17.53;;;;;;;;;;5029611;28;20177;-79
2023/03/03 10:42:58;;;;;;;31.40;18.60;;;;;;;;;;5030793;28;20237;-79
2023/03/03 10:45:43;;;;;;;30.33;18.93;;;;;;;;;;5032252;28;20192;-79
2023/03/03 10:48:18;;;;;;;31.00;19.33;;;;;;;;;;5032029;28;20187;-79
2023/03/03 10:50:43;;;;;;;13.73;9.57;;;;;;;;;;5024740;28;20194;-78
2023/03/03 10:53:22;;;;;;;23.40;13.40;;;;;;;;;;5026169;28;20207;-78
2023/03/03 10:56:00;;;;;;;28.33;18.23;;;;;;;;;;5022241;28;20183;-79
2023/03/03 10:58:31;;;;;;;24.27;14.77;;;;;;;;;;5038488;28;20252;-79
2023/03/03 11:01:09;;;;;;;26.73;16.70;;;;;;;;;;5024372;28;20180;-79
2023/03/03 11:03:49;;;;;;;25.63;16.50;;;;;;;;;;5026249;28;20197;-79
2023/03/03 11:06:19;;;;;;;26.60;17.50;;;;;;;;;;5030090;28;20265;-79
2023/03/03 11:09:03;;;;;;;28.97;17.37;;;;;;;;;;5040553;28;20268;-79
2023/03/03 11:11:35;;;;;;;29.20;20.33;;;;;;;;;;5027035;28;20198;-79
2023/03/03 11:14:06;;;;;;;31.67;17.40;;;;;;;;;;5029859;28;20243;-79
2023/03/03 11:16:38;;;;;;;24.97;17.47;;;;;;;;;;5018413;28;20216;-79
2023/03/03 11:19:10;;;;;;;30.50;19.30;;;;;;;;;;5048761;28;20221;-79
2023/03/03 11:21:54;;;;;;;30.27;17.90;;;;;;;;;;5039020;28;20182;-79
2023/03/03 11:24:29;;;;;;;30.73;19.57;;;;;;;;;;5022521;28;20185;-79
2023/03/03 11:27:04;;;;;;;22.57;13.03;;;;;;;;;;5029004;28;20190;-79
2023/03/03 11:29:29;;;;;;;29.33;19.07;;;;;;;;;;5017452;28;20188;-79
2023/03/03 11:32:12;;;;;;;29.50;17.80;;;;;;;;;;5023770;28;20185;-79
2023/03/03 11:34:46;;;;;;;24.73;16.23;;;;;;;;;;5029336;28;20178;-79
2023/03/03 11:37:26;;;;;;;32.67;18.70;;;;;;;;;;5045621;28;20204;-79
2023/03/03 11:40:11;;;;;;;24.63;15.20;;;;;;;;;;5023033;28;20184;-79
2023/03/03 11:42:54;;;;;;;28.13;16.90;;;;;;;;;;5028226;28;20200;-79
2023/03/03 11:45:24;;;;;;;31.33;18.90;;;;;;;;;;5022027;28;20179;-79
2023/03/03 11:47:52;;;;;;;30.20;18.40;;;;;;;;;;5020340;28;20211;-79
2023/03/03 11:50:27;;;;;;;35.70;20.33;;;;;;;;;;5024722;28;20175;-79
2023/03/03 11:52:53;;;;;;;29.30;17.73;;;;;;;;;;5020251;28;20302;-79
2023/03/03 11:55:27;;;;;;;27.23;17.17;;;;;;;;;;5024288;28;20235;-79
2023/03/03 11:57:59;;;;;;;25.87;17.00;;;;;;;;;;5024466;28;20272;-79
2023/03/03 12:00:24;;;;;;;28.17;18.87;;;;;;;;;;5019532;28;20178;-79
2023/03/03 12:03:22;;;;;;;26.43;18.17;;;;;;;;;;5024966;28;20252;-79
2023/03/03 12:06:06;;;;;;;28.03;18.10;;;;;;;;;;4987574;28;20201;-79
2023/03/03 12:08:37;;;;;;;25.27;16.77;;;;;;;;;;5020914;28;20178;-79
2023/03/03 12:11:11;;;;;;;30.30;18.13;;;;;;;;;;5028679;28;20210;-79
2023/03/03 12:13:49;;;;;;;31.60;19.27;;;;;;;;;;5025975;28;20205;-79
2023/03/03 12:16:20;;;;;;;45.73;20.37;;;;;;;;;;5022754;28;20230;-79
2023/03/03 12:18:49;;;;;;;24.23;17.57;;;;;;;;;;5008027;28;20226;-79
2023/03/03 12:21:32;;;;;;;30.80;18.67;;;;;;;;;;5004682;28;20179;-79
2023/03/03 12:24:06;;;;;;;31.60;18.00;;;;;;;;;;5019431;28;20184;-79
2023/03/03 12:26:53;;;;;;;26.80;18.50;;;;;;;;;;4997466;28;20195;-79
2023/03/03 12:29:32;;;;;;;27.30;18.30;;;;;;;;;;5006791;28;20187;-79
2023/03/03 12:32:06;;;;;;;28.93;18.60;;;;;;;;;;5002200;28;20181;-80
2023/03/03 12:34:37;;;;;;;27.00;14.07;;;;;;;;;;4997092;28;20170;-79
2023/03/03 12:37:06;;;;;;;28.07;18.83;;;;;;;;;;5006081;28;20210;-79
2023/03/03 12:39:41;;;;;;;30.43;16.27;;;;;;;;;;5006969;28;20188;-79
2023/03/03 12:42:22;;;;;;;26.03;17.23;;;;;;;;;;5012158;28;20183;-79
2023/03/03 12:45:23;;;;;;;25.63;18.00;;;;;;;;;;5010202;28;20275;-79
2023/03/03 12:48:00;;;;;;;23.10;16.10;;;;;;;;;;4938168;29;20226;-80
2023/03/03 12:50:44;;;;;;;25.13;16.70;;;;;;;;;;4991316;28;21014;-79
2023/03/03 12:53:15;;;;;;;24.40;15.70;;;;;;;;;;4997384;28;20298;-80
2023/03/03 12:56:02;;;;;;;24.50;15.27;;;;;;;;;;5006238;28;20231;-80
2023/03/03 12:58:32;;;;;;;24.83;17.10;;;;;;;;;;5001931;28;20171;-79
2023/03/03 13:01:05;;;;;;;23.60;16.73;;;;;;;;;;5000406;28;20182;-80
2023/03/03 13:03:49;;;;;;;24.20;16.70;;;;;;;;;;5000603;28;20266;-80
2023/03/03 13:06:22;;;;;;;25.33;16.13;;;;;;;;;;5004387;28;20190;-80
2023/03/03 13:08:47;;;;;;;28.40;18.30;;;;;;;;;;5003890;28;20246;-80
2023/03/03 13:11:29;;;;;;;29.57;20.40;;;;;;;;;;5010997;28;20206;-79
2023/03/03 13:14:01;;;;;;;24.07;16.83;;;;;;;;;;5007898;28;20222;-79
2023/03/03 13:16:36;;;;;;;23.17;17.23;;;;;;;;;;5011004;28;20226;-79
2023/03/03 13:19:10;;;;;;;22.20;14.67;;;;;;;;;;4999424;28;20181;-79
2023/03/03 13:21:40;;;;;;;28.87;19.33;;;;;;;;;;5005132;28;20195;-79
2023/03/03 13:24:06;;;;;;;30.37;19.57;;;;;;;;;;5003390;28;20187;-80
2023/03/03 13:26:53;;;;;;;25.43;17.43;;;;;;;;;;5005450;28;20186;-79
2023/03/03 13:29:34;;;;;;;24.63;15.83;;;;;;;;;;5011681;28;20187;-80
2023/03/03 13:32:02;;;;;;;25.87;15.33;;;;;;;;;;5003628;28;20189;-79
2023/03/03 13:34:33;;;;;;;26.53;18.73;;;;;;;;;;4998995;28;20173;-80
2023/03/03 13:37:04;;;;;;;38.83;18.90;;;;;;;;;;5003319;28;20180;-79
2023/03/03 13:39:32;;;;;;;27.97;17.87;;;;;;;;;;5013001;28;20185;-80
2023/03/03 13:42:02;;;;;;;27.03;16.33;;;;;;;;;;5006526;28;20176;-79
2023/03/03 13:44:27;;;;;;;25.83;18.93;;;;;;;;;;5006240;28;20581;-80
2023/03/03 13:47:07;;;;;;;28.53;18.07;;;;;;;;;;5010442;28;20257;-79
2023/03/03 13:49:38;;;;;;;30.30;17.70;;;;;;;;;;5002344;28;20179;-79
2023/03/03 13:52:08;;;;;;;23.27;17.43;;;;;;;;;;5009659;28;20180;-80
2023/03/03 13:54:36;;;;;;;24.47;17.83;;;;;;;;;;5023896;28;20206;-75
2023/03/03 13:57:19;;;;;;;25.97;18.93;;;;;;;;;;5003139;28;20179;-78
2023/03/03 13:59:52;;;;;;;24.67;15.10;;;;;;;;;;5004103;28;20190;-78
2023/03/03 14:02:44;;;;;;;23.40;16.20;;;;;;;;;;5030400;28;20183;-78
2023/03/03 14:05:22;;;;;;;29.63;16.93;;;;;;;;;;5005226;28;20203;-78
2023/03/03 14:07:50;;;;;;;24.93;18.00;;;;;;;;;;5002931;28;20245;-78
2023/03/03 14:10:34;;;;;;;27.57;19.20;;;;;;;;;;5006586;28;20244;-78
2023/03/03 14:13:07;;;;;;;27.73;19.27;;;;;;;;;;5013094;28;20203;-78
2023/03/03 14:15:35;;;;;;;28.33;18.30;;;;;;;;;;5006334;28;20179;-78
2023/03/03 14:18:09;;;;;;;25.70;17.93;;;;;;;;;;5044813;28;20204;-78
2023/03/03 14:20:44;;;;;;;26.13;19.50;;;;;;;;;;5041993;28;20820;-78
2023/03/03 14:23:13;;;;;;;29.33;18.87;;;;;;;;;;5032830;28;20178;-78
2023/03/03 14:25:58;;;;;;;34.97;17.60;;;;;;;;;;5026863;28;20184;-78
2023/03/03 14:28:25;;;;;;;25.97;19.40;;;;;;;;;;5025602;28;20190;-78
2023/03/03 14:30:53;;;;;;;27.93;19.20;;;;;;;;;;5020379;28;20183;-78